createdAt,value
2019-02-08T00:00:20.772Z,981.79
2019-02-08T00:03:51.052Z,981.68
2019-02-08T00:07:21.193Z,981.69
2019-02-08T00:10:51.309Z,981.86
2019-02-08T00:14:21.399Z,981.79
2019-02-08T00:17:51.519Z,981.71
2019-02-08T00:21:21.621Z,981.38
2019-02-08T00:24:51.868Z,981.37
2019-02-08T00:28:21.952Z,981.5
2019-02-08T00:31:52.198Z,981.6
2019-02-08T00:35:22.527Z,981.75
2019-02-08T00:38:52.767Z,981.93
2019-02-08T00:42:22.926Z,981.84
2019-02-08T00:45:53.006Z,981.66
2019-02-08T00:49:23.186Z,981.92
2019-02-08T00:52:54.755Z,981.75
2019-02-08T00:56:24.875Z,981.45
2019-02-08T00:59:54.928Z,981
2019-02-08T01:03:25.054Z,981.01
2019-02-08T01:06:55.314Z,980.64
2019-02-08T01:10:27.165Z,980.98
2019-02-08T01:13:57.373Z,980.98
2019-02-08T01:17:27.923Z,980.75
2019-02-08T01:20:58.402Z,981.15
2019-02-08T01:24:28.523Z,981.45
2019-02-08T01:27:58.864Z,981.46
2019-02-08T01:31:28.922Z,981.75
2019-02-08T01:34:59.051Z,981.3
2019-02-08T01:38:29.101Z,981.38
2019-02-08T01:41:59.190Z,981.37
2019-02-08T01:45:30.344Z,981.23
2019-02-08T01:49:00.640Z,981.09
2019-02-08T01:52:30.789Z,981.15
2019-02-08T01:56:32.619Z,981.01
2019-02-08T02:00:18.879Z,981.35
2019-02-08T02:03:48.968Z,980.86
2019-02-08T02:07:19.077Z,980.48
2019-02-08T02:10:49.362Z,980.73
2019-02-08T02:14:19.597Z,980.53
2019-02-08T02:17:49.747Z,980.61
2019-02-08T02:21:19.736Z,980.36
2019-02-08T02:24:49.976Z,980.39
2019-02-08T02:28:20.027Z,980.35
2019-02-08T02:31:50.233Z,980.51
2019-02-08T02:35:20.945Z,980.5
2019-02-08T02:38:51.056Z,980.62
2019-02-08T02:42:21.134Z,980.73
2019-02-08T02:45:51.334Z,980.62
2019-02-08T02:49:21.444Z,981.03
2019-02-08T02:52:51.676Z,980.91
2019-02-08T02:56:21.843Z,981.23
2019-02-08T02:59:52.362Z,980.81
2019-02-08T03:03:22.649Z,980.8
2019-02-08T03:06:52.912Z,980.57
2019-02-08T03:10:23.111Z,981.12
2019-02-08T03:13:53.361Z,980.83
2019-02-08T03:17:23.446Z,980.82
2019-02-08T03:20:53.651Z,980.79
2019-02-08T03:24:23.810Z,980.98
2019-02-08T03:27:54.229Z,981.06
2019-02-08T03:31:24.380Z,981.05
2019-02-08T03:34:54.625Z,980.83
2019-02-08T03:38:24.749Z,980.83
2019-02-08T03:41:54.818Z,980.71
2019-02-08T03:45:26.558Z,980.82
2019-02-08T03:48:56.717Z,980.65
2019-02-08T03:52:26.763Z,980.72
2019-02-08T03:55:58.679Z,980.73
2019-02-08T03:59:29.156Z,981.28
2019-02-08T04:00:21.736Z,981.25
2019-02-08T04:04:09.337Z,981.12
2019-02-08T04:07:39.435Z,980.89
2019-02-08T04:11:09.605Z,980.77
2019-02-08T04:14:39.805Z,980.62
2019-02-08T04:18:10.015Z,980.77
2019-02-08T04:21:40.050Z,980.27
2019-02-08T04:25:11.363Z,980.27
2019-02-08T04:28:41.473Z,980.48
2019-02-08T04:32:11.663Z,980.48
2019-02-08T04:35:41.752Z,980.8
2019-02-08T04:39:11.983Z,980.87
2019-02-08T04:42:42.192Z,980.86
2019-02-08T04:46:12.277Z,981
2019-02-08T04:49:42.416Z,980.73
2019-02-08T04:53:12.501Z,981.1
2019-02-08T04:56:42.612Z,981.35
2019-02-08T05:00:17.401Z,981.27
2019-02-08T05:03:49.099Z,981.39
2019-02-08T05:07:19.199Z,981.29
2019-02-08T05:10:49.229Z,981.65
2019-02-08T05:14:19.410Z,981.54
2019-02-08T05:17:49.518Z,981.63
2019-02-08T05:21:19.687Z,981.83
2019-02-08T05:24:49.809Z,981.81
2019-02-08T05:28:19.927Z,981.87
2019-02-08T05:31:50.008Z,981.55
2019-02-08T05:35:20.086Z,981.8
2019-02-08T05:38:50.173Z,982.06
2019-02-08T05:42:20.265Z,982.14
2019-02-08T05:45:50.275Z,982.13
2019-02-08T05:49:20.425Z,982.48
2019-02-08T05:52:50.494Z,982.84
2019-02-08T05:56:20.684Z,983.49
2019-02-08T05:59:50.814Z,983.94
2019-02-08T06:00:20.217Z,983.99
2019-02-08T06:03:51.493Z,984.38
2019-02-08T06:07:21.593Z,984.66
2019-02-08T06:10:51.711Z,984.96
2019-02-08T06:14:21.740Z,984.75
2019-02-08T06:17:52.004Z,985.07
2019-02-08T06:21:22.052Z,985.04
2019-02-08T06:24:52.251Z,985.35
2019-02-08T06:28:22.441Z,985.72
2019-02-08T06:31:52.690Z,985.63
2019-02-08T06:35:23.590Z,985.92
2019-02-08T06:38:53.790Z,985.8
2019-02-08T06:42:23.850Z,985.55
2019-02-08T06:45:54.080Z,985.32
2019-02-08T06:49:24.276Z,985.51
2019-02-08T06:52:54.700Z,985.17
2019-02-08T06:58:49.634Z,984.92
2019-02-08T07:07:16.428Z,984.97
2019-02-08T07:10:55.327Z,984.44
2019-02-08T07:14:32.987Z,984.94
2019-02-08T07:18:12.657Z,985.58
2019-02-08T07:21:49.437Z,986.2
2019-02-08T07:29:22.076Z,986.77
2019-02-08T07:33:00.387Z,986.69
2019-02-08T07:38:00.724Z,987.15
2019-02-08T07:42:13.164Z,987.47
2019-02-08T07:45:57.492Z,987.44
2019-02-08T07:49:41.316Z,987.75
2019-02-08T07:53:19.918Z,988.07
2019-02-08T07:57:05.255Z,988.18
2019-02-08T08:04:10.103Z,988.14
2019-02-08T08:10:20.507Z,988.11
2019-02-08T08:17:48.547Z,988.48
2019-02-08T08:21:34.976Z,988.74
2019-02-08T08:25:19.560Z,989.02
2019-02-08T08:30:10.511Z,989.53
2019-02-08T08:33:51.531Z,990.05
2019-02-08T08:37:54.741Z,989.58
2019-02-08T08:42:43.434Z,990.1
2019-02-08T08:46:58.970Z,989.85
2019-02-08T08:51:16.223Z,989.68
2019-02-08T09:03:01.454Z,989.81
2019-02-08T09:09:14.490Z,990.23
2019-02-08T09:12:59.804Z,990.55
2019-02-08T09:16:42.817Z,990.88
2019-02-08T09:23:06.894Z,990.13
2019-02-08T09:37:22.547Z,990.89
2019-02-08T09:43:47.894Z,992.11
2019-02-08T09:47:38.008Z,993.07
2019-02-08T09:51:36.342Z,993.48
2019-02-08T10:00:39.761Z,994.4
2019-02-08T10:07:07.624Z,994.5
2019-02-08T10:21:43.830Z,999.15
2019-02-08T10:27:55.341Z,997.35
2019-02-08T10:40:26.671Z,1000.09
2019-02-08T10:49:24.166Z,999.24
2019-02-08T10:53:53.248Z,999.84
2019-02-08T11:08:34.748Z,1001.72
2019-02-08T11:12:50.918Z,1002.74
2019-02-08T11:16:46.077Z,1000.88
2019-02-08T11:20:16.316Z,1002.12
2019-02-08T11:23:46.524Z,1003.64
2019-02-08T11:27:16.689Z,1005.15
2019-02-08T11:30:46.941Z,1006.07
2019-02-08T11:34:17.154Z,1002.62
2019-02-08T11:37:47.377Z,1001.72
2019-02-08T11:41:17.801Z,1004.09
2019-02-08T11:44:47.907Z,1004.93
2019-02-08T11:48:18.055Z,1006.93
2019-02-08T11:51:48.263Z,1007.96
2019-02-08T11:55:18.362Z,1005.38
2019-02-08T11:58:48.481Z,1002.09
2019-02-08T12:00:19.890Z,1001.89
2019-02-08T12:03:50.070Z,1002.33
2019-02-08T12:07:20.242Z,1003.72
2019-02-08T12:10:50.478Z,1004.56
2019-02-08T12:14:20.595Z,1003.19
2019-02-08T12:17:51.694Z,1003.13
2019-02-08T12:21:21.925Z,1002.14
2019-02-08T12:24:52.631Z,1002.68
2019-02-08T12:28:22.761Z,999.15
2019-02-08T12:31:52.838Z,999.03
2019-02-08T12:35:23.234Z,998.14
2019-02-08T12:38:53.373Z,996.92
2019-02-08T12:42:23.435Z,995.4
2019-02-08T12:45:53.617Z,993.98
2019-02-08T12:49:23.780Z,993.62
2019-02-08T12:52:53.802Z,993.29
2019-02-08T12:56:23.985Z,994.1
2019-02-08T12:59:54.248Z,994.76
2019-02-08T13:03:24.384Z,994.55
2019-02-08T13:06:54.513Z,994.18
2019-02-08T13:10:24.786Z,996.37
2019-02-08T13:13:54.830Z,996.25
2019-02-08T13:17:24.881Z,997.23
2019-02-08T13:20:56.043Z,995.41
2019-02-08T13:24:26.121Z,996.65
2019-02-08T13:27:56.289Z,997.66
2019-02-08T13:31:26.471Z,998.63
2019-02-08T13:34:56.524Z,999.19
2019-02-08T13:38:26.596Z,998.37
2019-02-08T13:41:56.690Z,996.9
2019-02-08T13:45:26.972Z,996.44
2019-02-08T13:48:57.002Z,996.39
2019-02-08T13:52:27.077Z,995.52
2019-02-08T13:55:57.190Z,994.58
2019-02-08T13:59:27.373Z,993.74
2019-02-08T14:00:19.486Z,993.28
2019-02-08T14:03:49.600Z,993.61
2019-02-08T14:07:19.653Z,994.53
2019-02-08T14:10:49.647Z,994.68
2019-02-08T14:14:19.737Z,993
2019-02-08T14:17:49.992Z,993.77
2019-02-08T14:21:21.799Z,992.96
2019-02-08T14:24:51.941Z,992.68
2019-02-08T14:28:22.041Z,992.97
2019-02-08T14:31:53.093Z,992.61
2019-02-08T14:35:23.567Z,992.06
2019-02-08T14:38:53.780Z,991.94
2019-02-08T14:42:23.942Z,991.92
2019-02-08T14:45:54.142Z,991.26
2019-02-08T14:49:24.325Z,991.01
2019-02-08T14:52:55.381Z,991.49
2019-02-08T14:56:25.444Z,991.27
2019-02-08T14:59:55.554Z,991.63
2019-02-08T15:03:25.713Z,990.05
2019-02-08T15:06:55.854Z,990.17
2019-02-08T15:10:28.916Z,989.67
2019-02-08T15:13:59.048Z,990.21
2019-02-08T15:17:29.256Z,990.21
2019-02-08T15:20:59.534Z,990.37
2019-02-08T15:24:30.722Z,990.31
2019-02-08T15:28:00.892Z,990.23
2019-02-08T15:31:31.050Z,990.03
2019-02-08T15:35:01.310Z,990.44
2019-02-08T15:38:31.385Z,990.57
2019-02-08T15:42:01.733Z,990.56
2019-02-08T15:45:31.911Z,990.56
2019-02-08T15:49:02.489Z,990.36
2019-02-08T15:52:32.727Z,990.77
2019-02-08T15:56:07.646Z,990.55
2019-02-08T15:59:37.833Z,990.19
2019-02-08T16:00:19.383Z,990.17
2019-02-08T16:03:49.532Z,990.18
2019-02-08T16:07:19.699Z,990.24
2019-02-08T16:10:49.898Z,990.41
2019-02-08T16:14:19.982Z,990.21
2019-02-08T16:17:50.503Z,989.75
2019-02-08T16:21:20.583Z,989.96
2019-02-08T16:24:51.830Z,990.65
2019-02-08T16:28:21.992Z,990.89
2019-02-08T16:31:52.073Z,990.5
2019-02-08T16:35:23.594Z,990.94
2019-02-08T16:38:53.723Z,991.22
2019-02-08T16:42:23.950Z,991.16
2019-02-08T16:45:54.389Z,991.26
2019-02-08T16:49:24.427Z,990.91
2019-02-08T16:52:54.865Z,990.98
2019-02-08T16:56:24.992Z,990.79
2019-02-08T16:59:55.190Z,990.91
2019-02-08T17:03:25.359Z,991.02
2019-02-08T17:06:55.477Z,991.11
2019-02-08T17:10:25.626Z,991.12
2019-02-08T17:13:55.743Z,991.37
2019-02-08T17:17:25.811Z,991.36
2019-02-08T17:20:56.010Z,991.75
2019-02-08T17:24:26.198Z,991.73
2019-02-08T17:27:57.504Z,991.65
2019-02-08T17:31:27.524Z,991.73
2019-02-08T17:34:57.670Z,991.97
2019-02-08T17:38:27.670Z,992.27
2019-02-08T17:41:57.910Z,992.79
2019-02-08T17:45:28.178Z,992.86
2019-02-08T17:48:58.235Z,992.82
2019-02-08T17:52:28.373Z,992.99
2019-02-08T17:55:58.541Z,993.22
2019-02-08T17:59:28.629Z,993.07
2019-02-08T18:00:21.320Z,992.96
2019-02-08T18:03:51.437Z,993.26
2019-02-08T18:07:21.495Z,993.42
2019-02-08T18:10:51.824Z,993.57
2019-02-08T18:14:21.932Z,993.42
2019-02-08T18:17:52.080Z,993.04
2019-02-08T18:21:22.189Z,992.95
2019-02-08T18:24:52.278Z,993.14
2019-02-08T18:28:23.349Z,992.54
2019-02-08T18:31:53.484Z,992.34
2019-02-08T18:35:23.841Z,992.9
2019-02-08T18:38:54.049Z,993.01
2019-02-08T18:42:24.237Z,992.74
2019-02-08T18:45:54.505Z,991.73
2019-02-08T18:49:24.603Z,991.25
2019-02-08T18:52:54.765Z,991.03
2019-02-08T18:56:24.890Z,990.81
2019-02-08T18:59:55.081Z,990.91
2019-02-08T19:03:25.207Z,990.79
2019-02-08T19:06:55.354Z,990.01
2019-02-08T19:10:25.563Z,989.37
2019-02-08T19:13:55.762Z,989.63
2019-02-08T19:17:25.838Z,988.65
2019-02-08T19:20:56.042Z,988.24
2019-02-08T19:24:26.155Z,988.08
2019-02-08T19:27:56.245Z,987.29
2019-02-08T19:31:27.401Z,986.5
2019-02-08T19:34:57.539Z,986.25
2019-02-08T19:38:27.717Z,985.76
2019-02-08T19:41:57.915Z,985.39
2019-02-08T19:45:28.135Z,985.5
2019-02-08T19:48:58.391Z,985.89
2019-02-08T19:52:28.493Z,986.14
2019-02-08T19:55:58.647Z,985.57
2019-02-08T19:59:28.805Z,986.08
2019-02-08T20:00:19.170Z,986.38
2019-02-08T20:03:49.242Z,986.72
2019-02-08T20:07:19.271Z,986.22
2019-02-08T20:10:49.539Z,985.77
2019-02-08T20:14:19.757Z,985.86
2019-02-08T20:17:50.005Z,985.88
2019-02-08T20:21:20.513Z,985.37
2019-02-08T20:24:50.695Z,985.24
2019-02-08T20:28:20.921Z,985.35
2019-02-08T20:31:52.027Z,984.49
2019-02-08T20:35:22.859Z,983.45
2019-02-08T20:38:53.073Z,983.37
2019-02-08T20:42:23.235Z,983.43
2019-02-08T20:45:53.410Z,983.02
2019-02-08T20:49:23.728Z,983.39
2019-02-08T20:52:54.275Z,983.42
2019-02-08T20:56:24.413Z,982.56
2019-02-08T20:59:54.621Z,982.22
2019-02-08T21:03:24.659Z,982.38
2019-02-08T21:06:54.848Z,982.12
2019-02-08T21:10:25.135Z,981.79
2019-02-08T21:13:55.325Z,981.53
2019-02-08T21:17:25.401Z,980.73
2019-02-08T21:20:55.519Z,980.77
2019-02-08T21:24:25.800Z,980.53
2019-02-08T21:27:55.927Z,980.14
2019-02-08T21:31:25.952Z,979.69
2019-02-08T21:34:57.161Z,979.37
2019-02-08T21:38:27.289Z,979.22
2019-02-08T21:41:57.417Z,978.45
2019-02-08T21:45:29.495Z,978
2019-02-08T21:48:59.652Z,977.74
2019-02-08T21:52:29.771Z,977.33
2019-02-08T21:56:00.046Z,977.81
2019-02-08T21:59:30.116Z,977.33
2019-02-08T22:00:21.947Z,977.24
2019-02-08T22:03:52.074Z,976.79
2019-02-08T22:07:22.252Z,976.45
2019-02-08T22:10:52.570Z,976.52
2019-02-08T22:14:22.698Z,976.65
2019-02-08T22:17:53.015Z,976.69
2019-02-08T22:21:23.163Z,977.21
2019-02-08T22:24:53.462Z,977.55
2019-02-08T22:28:23.599Z,977.1
2019-02-08T22:31:53.787Z,976.72
2019-02-08T22:35:25.655Z,976.46
2019-02-08T22:38:55.903Z,976.4
2019-02-08T22:42:25.981Z,976.15
2019-02-08T22:45:56.179Z,976.06
2019-02-08T22:49:26.287Z,976.1
2019-02-08T22:52:56.725Z,976.09
2019-02-08T22:56:26.943Z,975.62
2019-02-08T22:59:57.071Z,975.42
2019-02-08T23:03:27.208Z,975.54
2019-02-08T23:06:57.448Z,975.45
2019-02-08T23:10:27.714Z,975.34
2019-02-08T23:13:58.035Z,975.15
2019-02-08T23:17:28.121Z,974.9
2019-02-08T23:20:58.128Z,974.93
2019-02-08T23:24:28.156Z,975.15
2019-02-08T23:27:58.424Z,975.47
2019-02-08T23:31:28.443Z,975.4
2019-02-08T23:34:58.551Z,975.23
2019-02-08T23:38:30.248Z,974.72
2019-02-08T23:42:00.275Z,974.65
2019-02-08T23:45:30.436Z,973.99
2019-02-08T23:49:00.531Z,973.87
2019-02-08T23:52:30.599Z,973.72
2019-02-08T23:56:00.857Z,973.59
2019-02-08T23:59:37.939Z,973.5
